Time;durP1;ratioP1;P1;durP2;ratioP2;P2;SDS_P1;SDS_P2;PMS_P1;PMS_P2;Temp;Humidity;BMP_temperature;BMP_pressure;BME280_temperature;BME280_humidity;BME280_pressure;Samples;Min_cycle;Max_cycle;Signal;HPM_P1;HPM_P2
2022/01/11 00:02:01;;;;;;;0.20;0.20;;;1.20;99.90;;;;;;5114441;28;20047;-78
2022/01/11 00:04:30;;;;;;;0.20;0.20;;;0.10;99.90;;;;;;5148342;28;20046;-79
2022/01/11 00:06:58;;;;;;;0.20;0.20;;;0.10;99.90;;;;;;5148315;28;20044;-78
2022/01/11 00:09:40;;;;;;;0.22;0.22;;;0.10;99.90;;;;;;5146674;28;20123;-78
2022/01/11 00:12:09;;;;;;;0.10;0.10;;;0.10;99.90;;;;;;5150081;27;20480;-77
2022/01/11 00:14:36;;;;;;;0.20;0.20;;;0.10;99.90;;;;;;5147632;28;20472;-77
2022/01/11 00:17:03;;;;;;;0.15;0.15;;;0.10;99.90;;;;;;5164981;27;20118;-77
2022/01/11 00:19:30;;;;;;;0.10;0.10;;;0.10;99.90;;;;;;5130059;28;20130;-79
2022/01/11 00:21:58;;;;;;;0.20;0.20;;;0.50;99.90;;;;;;5164759;27;20122;-79
2022/01/11 00:24:32;;;;;;;0.20;0.20;;;0.00;99.90;;;;;;5130661;28;20078;-79
2022/01/11 00:27:01;;;;;;;0.20;0.20;;;0.00;99.90;;;;;;5131714;28;20062;-77
2022/01/11 00:29:28;;;;;;;0.20;0.20;;;0.10;99.90;;;;;;5113222;28;20568;-80
2022/01/11 00:32:00;;;;;;;0.20;0.20;;;0.10;99.90;;;;;;5165000;27;20123;-77
2022/01/11 00:34:38;;;;;;;0.20;0.20;;;0.10;99.90;;;;;;5113832;28;20096;-77
2022/01/11 00:37:06;;;;;;;0.30;0.30;;;0.90;99.90;;;;;;5182159;27;20039;-79
2022/01/11 00:39:33;;;;;;;0.20;0.20;;;0.00;99.90;;;;;;5129916;28;20040;-77
2022/01/11 00:41:59;;;;;;;0.20;0.20;;;0.00;99.90;;;;;;5113644;28;20071;-79
2022/01/11 00:44:26;;;;;;;0.20;0.20;;;0.00;99.90;;;;;;5146920;28;20157;-80
2022/01/11 00:46:53;;;;;;;0.20;0.20;;;0.70;99.90;;;;;;5113808;28;20045;-80
2022/01/11 00:49:20;;;;;;;0.28;0.28;;;0.00;99.90;;;;;;5163757;27;20104;-78
2022/01/11 00:51:47;;;;;;;0.20;0.20;;;0.00;99.90;;;;;;5113451;28;20040;-80
2022/01/11 00:54:13;;;;;;;0.20;0.20;;;-0.10;99.90;;;;;;5146992;28;20036;-80
2022/01/11 00:56:40;;;;;;;0.20;0.20;;;-0.10;99.90;;;;;;5163519;27;20040;-80
2022/01/11 00:59:07;;;;;;;0.28;0.28;;;-0.10;99.90;;;;;;5146875;28;20048;-78
2022/01/11 01:01:37;;;;;;;0.22;0.22;;;-0.10;99.90;;;;;;5129999;28;20054;-77
2022/01/11 01:04:06;;;;;;;0.20;0.20;;;0.70;99.90;;;;;;5113688;28;20629;-78
2022/01/11 01:06:32;;;;;;;0.30;0.30;;;-0.10;99.90;;;;;;5146588;27;20066;-78
2022/01/11 01:08:59;;;;;;;0.30;0.30;;;-0.10;99.90;;;;;;5129637;28;20043;-77
2022/01/11 01:11:26;;;;;;;0.20;0.20;;;-0.10;99.90;;;;;;5146195;28;20044;-80
2022/01/11 01:13:53;;;;;;;0.30;0.30;;;-0.20;99.90;;;;;;5164218;27;20036;-79
2022/01/11 01:16:21;;;;;;;0.20;0.20;;;0.20;99.90;;;;;;5130136;28;20415;-80
2022/01/11 01:18:48;;;;;;;0.20;0.20;;;0.20;99.90;;;;;;5129685;28;20051;-80
2022/01/11 01:21:15;;;;;;;0.20;0.20;;;-0.20;99.90;;;;;;5163894;27;20051;-77
2022/01/11 01:23:42;;;;;;;0.20;0.20;;;-0.10;99.90;;;;;;5163612;27;20404;-79
2022/01/11 01:26:09;;;;;;;0.20;0.20;;;-0.10;99.90;;;;;;5129632;28;20131;-78
2022/01/11 01:28:35;;;;;;;0.10;0.10;;;-0.10;99.90;;;;;;5145970;28;20593;-80
2022/01/11 01:31:03;;;;;;;0.25;0.25;;;0.10;99.90;;;;;;5129492;28;20041;-78
2022/01/11 01:33:31;;;;;;;0.43;0.43;;;0.40;99.90;;;;;;5129089;28;20434;-80
2022/01/11 01:36:02;;;;;;;0.20;0.20;;;-0.10;99.90;;;;;;5129948;28;20040;-78
2022/01/11 01:38:31;;;;;;;0.20;0.20;;;-0.20;99.90;;;;;;5112783;28;20118;-78
2022/01/11 01:41:11;;;;;;;0.22;0.22;;;-0.20;99.90;;;;;;5146832;28;20096;-80
2022/01/11 01:43:38;;;;;;;0.30;0.30;;;-0.20;99.90;;;;;;5163354;27;20035;-80
2022/01/11 01:46:05;;;;;;;0.20;0.20;;;0.40;99.90;;;;;;5112412;28;20130;-80
2022/01/11 01:48:32;;;;;;;0.20;0.20;;;-0.20;99.90;;;;;;5145918;28;20046;-78
2022/01/11 01:50:59;;;;;;;0.20;0.20;;;-0.20;99.90;;;;;;5129067;28;20078;-78
2022/01/11 01:53:26;;;;;;;0.20;0.20;;;-0.20;99.90;;;;;;5180051;27;20065;-79
2022/01/11 01:55:52;;;;;;;0.20;0.20;;;-0.20;99.90;;;;;;5163764;28;20039;-80
2022/01/11 01:58:20;;;;;;;0.20;0.20;;;-0.20;99.90;;;;;;5129182;28;20097;-80
2022/01/11 02:00:54;;;;;;;0.20;0.20;;;-0.20;99.90;;;;;;5112185;28;20166;-78
2022/01/11 02:03:29;;;;;;;0.20;0.20;;;-0.20;99.90;;;;;;5130545;28;20519;-80
2022/01/11 02:05:57;;;;;;;0.20;0.20;;;-0.20;99.90;;;;;;5147346;28;20043;-80
2022/01/11 02:08:25;;;;;;;0.30;0.30;;;0.40;99.90;;;;;;5146139;28;20107;-78
2022/01/11 02:10:53;;;;;;;0.30;0.30;;;-0.20;99.90;;;;;;5128803;28;20043;-78
2022/01/11 02:13:20;;;;;;;0.20;0.20;;;0.70;99.90;;;;;;5129191;28;20039;-78
2022/01/11 02:15:47;;;;;;;0.20;0.20;;;0.60;99.90;;;;;;5162783;28;20042;-80
2022/01/11 02:18:18;;;;;;;0.22;0.22;;;-0.10;99.90;;;;;;5163027;28;20059;-78
2022/01/11 02:20:46;;;;;;;0.20;0.20;;;-0.10;99.90;;;;;;5145995;28;20044;-80
2022/01/11 02:23:14;;;;;;;0.20;0.20;;;0.00;99.90;;;;;;5145921;28;20800;-80
2022/01/11 02:25:41;;;;;;;0.20;0.20;;;-0.10;99.90;;;;;;5145339;28;20035;-78
2022/01/11 02:28:14;;;;;;;0.20;0.20;;;0.80;99.90;;;;;;5164000;28;20043;-78
2022/01/11 02:30:41;;;;;;;0.30;0.30;;;-0.20;99.90;;;;;;5128553;28;20047;-80
2022/01/11 02:33:19;;;;;;;0.43;0.30;;;-0.20;99.90;;;;;;5147307;28;20039;-78
2022/01/11 02:35:50;;;;;;;0.20;0.20;;;-0.20;99.90;;;;;;5166658;27;20138;-80
2022/01/11 02:38:17;;;;;;;0.22;0.22;;;-0.30;99.90;;;;;;5116016;28;20031;-78
2022/01/11 02:40:45;;;;;;;0.30;0.30;;;-0.30;99.90;;;;;;5132597;28;20039;-80
2022/01/11 02:43:11;;;;;;;0.30;0.30;;;-0.30;99.90;;;;;;5149505;28;20497;-77
2022/01/11 02:45:38;;;;;;;0.30;0.30;;;-0.40;99.90;;;;;;5149309;28;20126;-78
2022/01/11 02:48:05;;;;;;;0.30;0.30;;;0.60;99.90;;;;;;5184027;27;20039;-78
2022/01/11 02:50:32;;;;;;;0.28;0.28;;;-0.40;99.90;;;;;;5132106;28;20043;-80
2022/01/11 02:52:59;;;;;;;0.25;0.25;;;-0.30;99.90;;;;;;5166860;27;20078;-80
2022/01/11 02:55:26;;;;;;;0.20;0.20;;;-0.30;99.90;;;;;;5149695;28;20456;-78
2022/01/11 02:57:54;;;;;;;0.30;0.30;;;-0.30;99.90;;;;;;5148748;28;20057;-80
2022/01/11 03:00:23;;;;;;;0.20;0.20;;;-0.30;99.90;;;;;;5149577;28;20565;-80
2022/01/11 03:02:50;;;;;;;0.20;0.20;;;-0.40;99.90;;;;;;5166008;27;20495;-78
2022/01/11 03:05:17;;;;;;;0.20;0.20;;;0.50;99.90;;;;;;5166624;27;20040;-78
2022/01/11 03:07:43;;;;;;;0.30;0.30;;;0.10;99.90;;;;;;5149354;28;20605;-80
2022/01/11 03:10:28;;;;;;;0.20;0.20;;;-0.40;99.90;;;;;;5132605;28;20488;-78
2022/01/11 03:12:55;;;;;;;0.20;0.20;;;-0.30;99.90;;;;;;5165783;27;20046;-78
2022/01/11 03:15:22;;;;;;;0.20;0.20;;;-0.30;99.90;;;;;;5160019;27;20050;-78
2022/01/11 03:17:49;;;;;;;0.20;0.20;;;-0.30;99.90;;;;;;5114448;28;20126;-78
2022/01/11 03:20:15;;;;;;;0.30;0.30;;;-0.30;99.90;;;;;;5114883;28;20043;-80
2022/01/11 03:22:42;;;;;;;0.30;0.30;;;-0.30;99.90;;;;;;5114917;28;20062;-78
2022/01/11 03:25:10;;;;;;;0.20;0.20;;;0.10;99.90;;;;;;5149236;28;20553;-78
2022/01/11 03:27:38;;;;;;;0.30;0.30;;;-0.40;99.90;;;;;;5148999;28;20054;-78
2022/01/11 03:30:06;;;;;;;0.20;0.20;;;-0.40;99.90;;;;;;5132208;28;20089;-80
2022/01/11 03:32:32;;;;;;;0.30;0.30;;;-0.40;99.90;;;;;;5148748;28;20096;-77
2022/01/11 03:34:59;;;;;;;0.20;0.20;;;-0.50;99.90;;;;;;5148281;28;20127;-78
2022/01/11 03:37:26;;;;;;;0.20;0.20;;;-0.50;99.90;;;;;;5131710;28;20035;-80
2022/01/11 03:39:53;;;;;;;0.20;0.20;;;-0.30;99.90;;;;;;5148147;28;20062;-81
2022/01/11 03:42:20;;;;;;;0.20;0.20;;;-0.30;99.90;;;;;;5148418;28;20039;-78
2022/01/11 03:44:49;;;;;;;0.28;0.28;;;-0.40;99.90;;;;;;5097424;28;20047;-78
2022/01/11 03:47:17;;;;;;;0.20;0.20;;;-0.40;99.90;;;;;;5148119;28;20143;-78
2022/01/11 03:49:43;;;;;;;0.40;0.40;;;-0.50;99.90;;;;;;5130705;28;20050;-80
2022/01/11 03:52:10;;;;;;;0.20;0.20;;;-0.40;99.90;;;;;;5130928;28;20051;-80
2022/01/11 03:55:01;;;;;;;0.20;0.20;;;-0.40;99.90;;;;;;5114193;28;20044;-78
2022/01/11 03:57:30;;;;;;;0.20;0.20;;;-0.40;99.90;;;;;;5104412;28;20043;-78
2022/01/11 04:00:04;;;;;;;0.20;0.20;;;-0.30;99.90;;;;;;5130795;28;20048;-78
2022/01/11 04:02:30;;;;;;;0.20;0.20;;;0.20;99.90;;;;;;5131076;28;20689;-78
2022/01/11 04:04:57;;;;;;;0.30;0.30;;;-0.40;99.90;;;;;;5113994;28;20085;-78
2022/01/11 04:07:26;;;;;;;0.30;0.30;;;-0.10;99.90;;;;;;5097855;28;20528;-78
2022/01/11 04:09:54;;;;;;;0.20;0.20;;;-0.30;99.90;;;;;;5147277;28;20047;-78
2022/01/11 04:12:21;;;;;;;0.22;0.22;;;-0.30;99.90;;;;;;5114185;28;20042;-79
2022/01/11 04:14:48;;;;;;;0.20;0.20;;;0.20;99.90;;;;;;5130683;28;20028;-78
2022/01/11 04:17:15;;;;;;;0.20;0.20;;;-0.30;99.90;;;;;;5147753;28;20032;-80
2022/01/11 04:19:42;;;;;;;0.30;0.30;;;-0.30;99.90;;;;;;5113614;28;20134;-78
2022/01/11 04:22:09;;;;;;;0.30;0.30;;;-0.30;99.90;;;;;;5113536;28;20104;-80
2022/01/11 04:24:39;;;;;;;0.20;0.20;;;0.10;99.90;;;;;;5130489;28;20054;-78
2022/01/11 04:27:06;;;;;;;0.20;0.20;;;-0.30;99.90;;;;;;5147423;28;20051;-79
2022/01/11 04:29:33;;;;;;;0.20;0.20;;;-0.30;99.90;;;;;;5096793;28;20445;-80
2022/01/11 04:32:00;;;;;;;0.20;0.20;;;-0.30;99.90;;;;;;5130161;28;20032;-78
2022/01/11 04:34:28;;;;;;;0.20;0.20;;;-0.30;99.90;;;;;;5097142;28;20130;-78
2022/01/11 04:36:55;;;;;;;0.30;0.30;;;-0.30;99.90;;;;;;5130430;28;20076;-80
2022/01/11 04:39:22;;;;;;;0.28;0.28;;;-0.20;99.90;;;;;;5130196;28;20122;-78
2022/01/11 04:41:50;;;;;;;0.30;0.30;;;-0.20;99.90;;;;;;5130488;28;20039;-80
2022/01/11 04:44:17;;;;;;;0.30;0.30;;;-0.20;99.90;;;;;;5130061;28;20535;-78
2022/01/11 04:46:43;;;;;;;0.20;0.20;;;-0.20;99.90;;;;;;5130268;28;20904;-78
2022/01/11 04:49:10;;;;;;;0.20;0.20;;;-0.20;99.90;;;;;;5113264;28;20130;-79
2022/01/11 04:51:37;;;;;;;0.28;0.28;;;-0.20;99.90;;;;;;5096723;28;20480;-78
2022/01/11 04:54:04;;;;;;;0.40;0.40;;;-0.20;99.90;;;;;;5112674;28;20400;-80
2022/01/11 04:56:31;;;;;;;0.20;0.20;;;-0.20;99.90;;;;;;5112913;28;20042;-78
2022/01/11 04:58:58;;;;;;;0.20;0.20;;;-0.20;99.90;;;;;;5129433;28;20031;-79
2022/01/11 05:01:25;;;;;;;0.20;0.20;;;-0.10;99.90;;;;;;5147028;28;20036;-78
2022/01/11 05:03:52;;;;;;;0.30;0.30;;;0.30;99.90;;;;;;5130259;28;20399;-78
2022/01/11 05:06:19;;;;;;;0.20;0.20;;;0.50;99.90;;;;;;5113273;28;20499;-78
2022/01/11 05:08:46;;;;;;;0.30;0.30;;;0.30;99.90;;;;;;5146951;28;20044;-80
2022/01/11 05:11:12;;;;;;;0.45;0.45;;;0.30;99.90;;;;;;5112776;28;20040;-80
2022/01/11 05:13:39;;;;;;;0.30;0.30;;;-0.30;99.90;;;;;;5129735;28;20039;-80
2022/01/11 05:16:06;;;;;;;0.20;0.20;;;-0.30;99.90;;;;;;5112856;28;20374;-78
2022/01/11 05:18:36;;;;;;;0.20;0.20;;;-0.40;99.90;;;;;;5129310;28;20476;-78
2022/01/11 05:21:04;;;;;;;0.20;0.20;;;-0.30;99.90;;;;;;5112608;28;20040;-79
2022/01/11 05:23:31;;;;;;;0.20;0.20;;;-0.30;99.90;;;;;;5129458;28;20043;-80
2022/01/11 05:25:57;;;;;;;0.25;0.25;;;-0.40;99.90;;;;;;5129081;28;20050;-80
2022/01/11 05:28:24;;;;;;;0.30;0.30;;;-0.40;99.90;;;;;;5112869;28;20039;-78
2022/01/11 05:30:51;;;;;;;0.20;0.20;;;-0.40;99.90;;;;;;5129345;28;20480;-79
2022/01/11 05:33:18;;;;;;;0.20;0.20;;;0.40;99.90;;;;;;5112175;28;20055;-77
2022/01/11 05:35:46;;;;;;;0.30;0.30;;;-0.40;99.90;;;;;;5112870;28;20081;-78
2022/01/11 05:38:12;;;;;;;0.10;0.10;;;-0.40;99.90;;;;;;5095856;28;20486;-80
2022/01/11 05:40:39;;;;;;;0.20;0.20;;;0.60;99.90;;;;;;5112205;28;20105;-80
2022/01/11 05:43:06;;;;;;;0.30;0.30;;;-0.50;99.90;;;;;;5095333;28;20050;-78
2022/01/11 05:45:33;;;;;;;0.10;0.10;;;0.30;99.90;;;;;;5129452;28;20435;-80
2022/01/11 05:48:02;;;;;;;0.20;0.20;;;-0.50;99.90;;;;;;5095400;28;20058;-80
2022/01/11 05:50:28;;;;;;;0.20;0.20;;;0.40;99.90;;;;;;5129264;28;20039;-78
2022/01/11 05:52:55;;;;;;;0.20;0.20;;;-0.50;99.90;;;;;;5095655;28;20054;-78
2022/01/11 05:55:22;;;;;;;0.22;0.22;;;-0.40;99.90;;;;;;5146138;28;20099;-78
2022/01/11 05:57:49;;;;;;;0.20;0.20;;;-0.40;99.90;;;;;;5129201;28;20540;-80
2022/01/11 06:00:18;;;;;;;0.20;0.20;;;0.20;99.90;;;;;;5112065;28;20035;-80
2022/01/11 06:02:48;;;;;;;0.30;0.30;;;-0.50;99.90;;;;;;5129544;28;20150;-78
2022/01/11 06:05:18;;;;;;;0.10;0.10;;;0.50;99.90;;;;;;5147974;28;20035;-78
2022/01/11 06:07:45;;;;;;;0.25;0.25;;;-0.40;99.90;;;;;;5130296;28;20081;-80
2022/01/11 06:10:14;;;;;;;0.20;0.20;;;-0.40;99.90;;;;;;5133365;28;20496;-78
2022/01/11 06:12:45;;;;;;;0.20;0.20;;;-0.40;99.90;;;;;;5116507;28;20053;-80
2022/01/11 06:15:11;;;;;;;0.30;0.30;;;-0.40;99.90;;;;;;5116466;28;20058;-80
2022/01/11 06:17:39;;;;;;;0.20;0.20;;;-0.30;99.90;;;;;;5099716;28;20036;-79
2022/01/11 06:20:07;;;;;;;0.15;0.15;;;-0.40;99.90;;;;;;5132752;28;20780;-78
2022/01/11 06:22:34;;;;;;;0.30;0.30;;;-0.40;99.90;;;;;;5116359;28;20044;-77
2022/01/11 06:25:03;;;;;;;0.20;0.20;;;-0.40;99.90;;;;;;5099750;28;20055;-80
2022/01/11 06:27:31;;;;;;;0.20;0.20;;;-0.40;99.90;;;;;;5133088;28;20032;-77
2022/01/11 06:29:58;;;;;;;0.20;0.20;;;-0.40;99.90;;;;;;5138377;27;20035;-80
2022/01/11 06:32:25;;;;;;;0.43;0.43;;;-0.40;99.90;;;;;;5132141;28;20358;-79
2022/01/11 06:34:53;;;;;;;0.20;0.20;;;-0.40;99.90;;;;;;5132494;28;20035;-80
2022/01/11 06:37:20;;;;;;;0.20;0.20;;;-0.40;99.90;;;;;;5131842;28;20492;-78
2022/01/11 06:39:47;;;;;;;0.20;0.20;;;-0.40;99.90;;;;;;5099245;28;20042;-77
2022/01/11 06:42:13;;;;;;;0.20;0.20;;;-0.40;99.90;;;;;;5115338;28;20028;-79
2022/01/11 06:44:42;;;;;;;0.30;0.30;;;0.20;99.90;;;;;;5132382;28;20043;-79
2022/01/11 06:47:09;;;;;;;0.32;0.32;;;0.00;99.90;;;;;;5115782;28;20044;-77
2022/01/11 06:49:36;;;;;;;0.25;0.25;;;-0.40;99.90;;;;;;5132113;28;20040;-80
2022/01/11 06:52:03;;;;;;;0.20;0.20;;;-0.40;99.90;;;;;;5102152;28;20038;-80
2022/01/11 06:54:30;;;;;;;0.20;0.20;;;-0.40;99.90;;;;;;5149096;28;20039;-80
2022/01/11 06:56:57;;;;;;;0.20;0.20;;;-0.40;99.90;;;;;;5131757;28;20042;-79
2022/01/11 06:59:24;;;;;;;0.30;0.30;;;-0.20;99.90;;;;;;5131723;28;20089;-78
2022/01/11 07:01:50;;;;;;;0.22;0.22;;;-0.40;99.90;;;;;;5132259;28;20047;-80
2022/01/11 07:04:17;;;;;;;0.30;0.30;;;-0.40;99.90;;;;;;5131871;28;20449;-79
2022/01/11 07:06:44;;;;;;;0.28;0.28;;;0.20;99.90;;;;;;5149244;27;20040;-79
2022/01/11 07:09:10;;;;;;;0.30;0.30;;;-0.40;99.90;;;;;;5115109;28;20075;-79
2022/01/11 07:11:37;;;;;;;0.20;0.20;;;-0.40;99.90;;;;;;5115143;28;20049;-79
2022/01/11 07:14:04;;;;;;;0.20;0.20;;;-0.40;99.90;;;;;;5148932;28;20496;-77
2022/01/11 07:16:31;;;;;;;0.20;0.20;;;-0.40;99.90;;;;;;5131709;28;20116;-80
2022/01/11 07:18:58;;;;;;;0.20;0.20;;;-0.40;99.90;;;;;;5131138;28;20039;-80
2022/01/11 07:21:24;;;;;;;0.30;0.30;;;-0.40;99.90;;;;;;5141806;28;20456;-77
2022/01/11 07:23:51;;;;;;;0.30;0.30;;;-0.40;99.90;;;;;;5146852;28;20040;-77
2022/01/11 07:26:18;;;;;;;0.20;0.20;;;-0.40;99.90;;;;;;5111443;28;20040;-79
2022/01/11 07:28:46;;;;;;;0.20;0.20;;;-0.40;99.90;;;;;;5113031;28;20046;-80
2022/01/11 07:31:13;;;;;;;0.20;0.20;;;0.60;99.90;;;;;;5109825;28;20032;-80
2022/01/11 07:33:40;;;;;;;0.30;0.30;;;-0.30;99.90;;;;;;5131023;28;20023;-77
2022/01/11 07:36:07;;;;;;;0.30;0.30;;;-0.40;99.90;;;;;;5112144;28;20487;-79
2022/01/11 07:38:33;;;;;;;0.20;0.20;;;0.10;99.90;;;;;;5113003;28;20507;-77
2022/01/11 07:41:00;;;;;;;0.22;0.22;;;-0.30;99.90;;;;;;5113892;28;20043;-80
2022/01/11 07:43:27;;;;;;;0.40;0.40;;;-0.20;99.90;;;;;;5130735;28;20128;-78
2022/01/11 07:45:53;;;;;;;0.20;0.20;;;-0.30;99.90;;;;;;5130328;28;20047;-80
2022/01/11 07:48:20;;;;;;;0.20;0.20;;;-0.30;99.90;;;;;;5130115;28;20078;-80
2022/01/11 07:50:47;;;;;;;0.20;0.20;;;-0.20;99.90;;;;;;5096782;28;20122;-80
2022/01/11 07:53:14;;;;;;;0.20;0.20;;;-0.30;99.90;;;;;;5130285;28;20035;-80
2022/01/11 07:55:40;;;;;;;0.25;0.25;;;-0.10;99.90;;;;;;5129673;28;20446;-78
2022/01/11 07:58:07;;;;;;;0.20;0.20;;;-0.30;99.90;;;;;;5096075;28;20101;-79
2022/01/11 08:00:34;;;;;;;0.40;0.40;;;-0.20;99.90;;;;;;5112209;28;20126;-78
2022/01/11 08:03:01;;;;;;;0.25;0.25;;;-0.20;99.90;;;;;;5129794;28;20134;-80
2022/01/11 08:05:27;;;;;;;0.20;0.20;;;0.80;99.90;;;;;;5146457;28;20067;-78
2022/01/11 08:07:54;;;;;;;0.25;0.25;;;0.00;99.90;;;;;;5094473;28;20040;-80
2022/01/11 08:10:21;;;;;;;0.20;0.20;;;-0.20;99.90;;;;;;5146508;28;20548;-80
2022/01/11 08:12:47;;;;;;;0.20;0.20;;;-0.20;99.90;;;;;;5129293;28;20067;-78
2022/01/11 08:15:14;;;;;;;0.28;0.28;;;-0.30;99.90;;;;;;5129931;28;20040;-79
2022/01/11 08:17:41;;;;;;;0.50;0.50;;;-0.20;99.90;;;;;;5127167;28;20378;-78
2022/01/11 08:20:08;;;;;;;0.20;0.20;;;0.00;99.90;;;;;;5092480;28;1129096;-80
2022/01/11 08:22:36;;;;;;;0.40;0.40;;;-0.20;99.90;;;;;;5141628;28;20063;-80
2022/01/11 08:25:03;;;;;;;0.63;0.63;;;0.40;99.90;;;;;;5130422;28;20053;-80
2022/01/11 08:27:31;;;;;;;0.20;0.20;;;-0.20;99.90;;;;;;5138885;28;20046;-77
2022/01/11 08:29:58;;;;;;;0.20;0.20;;;-0.10;99.90;;;;;;5092928;28;20068;-79
2022/01/11 08:32:24;;;;;;;0.20;0.20;;;0.30;99.90;;;;;;5126502;28;20082;-77
2022/01/11 08:34:51;;;;;;;0.20;0.20;;;0.60;99.90;;;;;;5126789;28;20559;-80
2022/01/11 08:37:18;;;;;;;0.20;0.20;;;-0.10;99.90;;;;;;5110625;28;20127;-82
2022/01/11 08:39:45;;;;;;;0.20;0.20;;;0.00;99.90;;;;;;5101997;28;20122;-82
2022/01/11 08:42:12;;;;;;;0.20;0.20;;;0.40;99.90;;;;;;5127276;28;20823;-80
2022/01/11 08:44:46;;;;;;;0.80;0.73;;;0.00;99.90;;;;;;5110855;28;20434;-78
2022/01/11 08:47:14;;;;;;;0.68;0.68;;;0.00;99.90;;;;;;5109779;28;20043;-80
2022/01/11 08:49:40;;;;;;;0.20;0.20;;;0.80;99.90;;;;;;5128101;28;20040;-80
2022/01/11 08:52:08;;;;;;;0.20;0.20;;;1.20;99.90;;;;;;5129538;28;20039;-81
2022/01/11 08:54:34;;;;;;;0.20;0.20;;;0.10;99.90;;;;;;5129003;28;20058;-80
2022/01/11 08:57:01;;;;;;;0.10;0.10;;;0.10;99.90;;;;;;5146172;28;20044;-77
2022/01/11 08:59:28;;;;;;;0.20;0.20;;;0.10;99.90;;;;;;5146985;28;20028;-80
2022/01/11 09:01:58;;;;;;;0.20;0.20;;;0.20;99.90;;;;;;5146395;28;20453;-79
2022/01/11 09:04:29;;;;;;;0.30;0.30;;;0.20;99.90;;;;;;5145884;28;20054;-80
2022/01/11 09:06:57;;;;;;;0.30;0.30;;;0.10;99.90;;;;;;5128860;28;20127;-78
2022/01/11 09:09:26;;;;;;;0.20;0.20;;;0.20;99.90;;;;;;5129850;28;20381;-78
2022/01/11 09:11:53;;;;;;;0.30;0.30;;;0.20;99.90;;;;;;5145748;28;20048;-78
2022/01/11 09:14:20;;;;;;;0.20;0.20;;;0.20;99.90;;;;;;5129241;28;20058;-77
2022/01/11 09:16:47;;;;;;;0.20;0.20;;;0.20;99.90;;;;;;5129284;28;20042;-77
2022/01/11 09:19:15;;;;;;;0.20;0.20;;;0.20;99.90;;;;;;5128396;28;20512;-80
2022/01/11 09:21:42;;;;;;;0.28;0.28;;;0.20;99.90;;;;;;5129139;28;20511;-80
2022/01/11 09:24:09;;;;;;;0.20;0.20;;;0.20;99.90;;;;;;5111964;28;20036;-77
2022/01/11 09:26:37;;;;;;;0.20;0.20;;;0.20;99.90;;;;;;5128726;28;20662;-77
2022/01/11 09:29:04;;;;;;;0.20;0.20;;;0.20;99.90;;;;;;5112635;28;20043;-78
2022/01/11 09:31:31;;;;;;;0.95;0.75;;;1.40;99.90;;;;;;5111981;28;20116;-81
2022/01/11 09:33:58;;;;;;;0.20;0.20;;;0.20;99.90;;;;;;5128481;28;20093;-81
2022/01/11 09:36:24;;;;;;;0.20;0.20;;;0.30;99.90;;;;;;5112026;28;20035;-78
2022/01/11 09:38:51;;;;;;;0.22;0.22;;;0.80;99.90;;;;;;5111976;28;20035;-77
2022/01/11 09:41:19;;;;;;;0.47;0.47;;;0.20;99.90;;;;;;5111273;28;20054;-80
2022/01/11 09:43:46;;;;;;;0.20;0.20;;;0.30;99.90;;;;;;5128533;28;20039;-78
2022/01/11 09:46:13;;;;;;;0.20;0.20;;;0.30;99.90;;;;;;5112155;28;20046;-80
2022/01/11 09:48:41;;;;;;;0.20;0.20;;;0.90;99.90;;;;;;5111696;28;20100;-78
2022/01/11 09:51:08;;;;;;;0.30;0.30;;;0.30;99.90;;;;;;5128956;28;20040;-77
2022/01/11 09:53:35;;;;;;;0.50;0.50;;;0.40;99.90;;;;;;5112521;28;20039;-81
2022/01/11 09:56:06;;;;;;;0.20;0.20;;;0.40;99.90;;;;;;5145108;28;20095;-80
2022/01/11 09:58:33;;;;;;;0.20;0.20;;;0.40;99.90;;;;;;5128683;28;20130;-78
2022/01/11 10:01:00;;;;;;;0.20;0.20;;;0.40;99.90;;;;;;5111367;28;20043;-81
2022/01/11 10:03:27;;;;;;;0.30;0.30;;;0.40;99.90;;;;;;5111965;28;20547;-79
2022/01/11 10:05:54;;;;;;;0.20;0.20;;;0.40;99.90;;;;;;5145410;28;20075;-78
2022/01/11 10:08:22;;;;;;;0.20;0.20;;;0.50;99.90;;;;;;5128749;28;20044;-78
2022/01/11 10:10:52;;;;;;;0.20;0.20;;;0.80;99.90;;;;;;5127744;28;20127;-81
2022/01/11 10:13:35;;;;;;;0.17;0.17;;;0.50;99.90;;;;;;5112341;28;20512;-82
2022/01/11 10:16:23;;;;;;;0.20;0.20;;;0.50;99.90;;;;;;5145145;28;20053;-79
2022/01/11 10:18:51;;;;;;;0.20;0.20;;;0.60;99.90;;;;;;5128260;28;20134;-79
2022/01/11 10:21:35;;;;;;;0.20;0.20;;;0.50;99.90;;;;;;5128760;28;20122;-79
2022/01/11 10:24:21;;;;;;;0.13;0.13;;;0.60;99.90;;;;;;5107915;28;20443;-82
2022/01/11 10:26:48;;;;;;;0.20;0.20;;;0.70;99.90;;;;;;5157228;28;20082;-80
2022/01/11 10:29:40;;;;;;;0.10;0.10;;;0.60;99.90;;;;;;5128530;28;20075;-78
2022/01/11 10:32:40;;;;;;;0.20;0.20;;;0.60;99.90;;;;;;5127941;28;20043;-78
2022/01/11 10:35:40;;;;;;;0.20;0.20;;;0.60;99.90;;;;;;5178296;27;20090;-78
2022/01/11 10:38:07;;;;;;;0.20;0.20;;;0.60;99.90;;;;;;5144123;28;20069;-78
2022/01/11 10:40:45;;;;;;;0.20;0.20;;;0.60;99.90;;;;;;5127664;28;20703;-78
2022/01/11 10:43:18;;;;;;;0.20;0.20;;;0.60;99.90;;;;;;5128444;28;20046;-81
2022/01/11 10:45:58;;;;;;;0.20;0.20;;;0.60;99.90;;;;;;5127682;28;20461;-78
2022/01/11 10:48:27;;;;;;;0.20;0.20;;;1.30;99.90;;;;;;5145801;28;20069;-81
2022/01/11 10:50:59;;;;;;;0.20;0.20;;;0.70;99.90;;;;;;5145517;28;20036;-80
2022/01/11 10:53:32;;;;;;;0.20;0.20;;;0.70;99.90;;;;;;5129435;28;20047;-79
2022/01/11 10:56:01;;;;;;;0.20;0.20;;;1.60;99.90;;;;;;5148987;28;20036;-77
2022/01/11 10:58:32;;;;;;;0.20;0.20;;;0.80;99.90;;;;;;5148915;28;20578;-80
2022/01/11 11:00:59;;;;;;;0.20;0.20;;;0.90;99.90;;;;;;5115197;28;20035;-78
2022/01/11 11:03:31;;;;;;;0.85;0.85;;;0.80;99.90;;;;;;5148911;28;20035;-81
2022/01/11 11:06:03;;;;;;;0.20;0.20;;;1.60;99.90;;;;;;5166357;27;20036;-81
2022/01/11 11:08:34;;;;;;;0.20;0.20;;;1.40;99.90;;;;;;5165994;27;20044;-81
2022/01/11 11:11:14;;;;;;;0.10;0.10;;;0.90;99.90;;;;;;5165955;27;20046;-80
2022/01/11 11:13:44;;;;;;;0.20;0.20;;;1.00;99.90;;;;;;5166252;27;20040;-79
2022/01/11 11:16:13;;;;;;;0.20;0.20;;;1.00;99.90;;;;;;5165423;27;20092;-78
2022/01/11 11:18:42;;;;;;;0.10;0.10;;;1.10;99.90;;;;;;5158491;27;20061;-81
2022/01/11 11:21:26;;;;;;;0.25;0.25;;;1.20;99.90;;;;;;5167596;27;20047;-78
2022/01/11 11:23:55;;;;;;;0.20;0.20;;;1.20;99.90;;;;;;5148311;28;20097;-81
2022/01/11 11:26:32;;;;;;;0.10;0.10;;;1.20;99.90;;;;;;5149190;28;20795;-80
2022/01/11 11:28:58;;;;;;;0.20;0.20;;;1.30;99.90;;;;;;5165494;27;20076;-81
2022/01/11 11:31:25;;;;;;;0.10;0.10;;;1.30;99.90;;;;;;5148985;28;20117;-79
2022/01/11 11:33:52;;;;;;;0.10;0.10;;;1.40;99.90;;;;;;5114036;28;20054;-81
2022/01/11 11:36:19;;;;;;;0.20;0.20;;;1.50;99.90;;;;;;5149175;28;20039;-81
2022/01/11 11:39:11;;;;;;;0.50;0.50;;;1.50;99.90;;;;;;5148450;28;20035;-78
2022/01/11 11:41:41;;;;;;;0.20;0.20;;;1.60;99.90;;;;;;5114946;28;20039;-78
2022/01/11 11:44:11;;;;;;;0.20;0.20;;;2.40;99.90;;;;;;5131279;28;20134;-82
2022/01/11 11:46:51;;;;;;;0.20;0.20;;;1.80;99.90;;;;;;5156948;27;20066;-78
2022/01/11 11:49:44;;;;;;;0.20;0.20;;;1.90;99.90;;;;;;5127923;28;20547;-81
2022/01/11 11:52:24;;;;;;;0.10;0.10;;;1.90;99.90;;;;;;5110778;28;20104;-78
2022/01/11 11:54:57;;;;;;;0.20;0.20;;;1.90;99.90;;;;;;5110720;28;20047;-81
2022/01/11 11:57:35;;;;;;;0.10;0.10;;;2.50;99.90;;;;;;5127808;28;20040;-78
2022/01/11 12:00:24;;;;;;;0.10;0.10;;;3.00;99.90;;;;;;5110114;28;20048;-77
2022/01/11 12:02:53;;;;;;;0.20;0.20;;;2.10;99.90;;;;;;5110123;28;20458;-79
2022/01/11 12:05:40;;;;;;;0.10;0.10;;;2.10;99.90;;;;;;5138015;28;20547;-78
2022/01/11 12:08:35;;;;;;;0.10;0.10;;;2.20;99.90;;;;;;5164067;27;20044;-82
2022/01/11 12:11:05;;;;;;;0.10;0.10;;;2.30;99.90;;;;;;5127121;28;20075;-77
2022/01/11 12:13:47;;;;;;;4.78;0.68;;;2.40;99.90;;;;;;5146824;28;20024;-77
2022/01/11 12:16:26;;;;;;;0.80;0.22;;;2.40;99.90;;;;;;5151432;27;20071;-77
2022/01/11 12:19:48;;;;;;;0.20;0.20;;;2.50;99.90;;;;;;5159895;27;20098;-78
2022/01/11 12:22:27;;;;;;;0.30;0.30;;;2.60;99.90;;;;;;5051861;28;20571;-77
2022/01/11 12:24:59;;;;;;;0.20;0.20;;;2.70;99.90;;;;;;5153101;27;20097;-77
2022/01/11 12:27:26;;;;;;;0.15;0.15;;;3.20;99.90;;;;;;5158349;27;20396;-78
2022/01/11 12:30:20;;;;;;;0.10;0.10;;;2.80;99.90;;;;;;5146072;27;20044;-80
2022/01/11 12:33:09;;;;;;;0.10;0.10;;;2.80;99.90;;;;;;5107075;28;20535;-77
2022/01/11 12:35:57;;;;;;;0.17;0.17;;;2.90;99.90;;;;;;5109965;28;20081;-78
2022/01/11 12:38:26;;;;;;;0.10;0.10;;;2.90;99.90;;;;;;5109071;28;20036;-79
2022/01/11 12:40:53;;;;;;;0.10;0.10;;;2.90;99.90;;;;;;5093048;28;20044;-77
2022/01/11 12:43:42;;;;;;;0.10;0.10;;;3.00;99.90;;;;;;5125764;28;20366;-78
2022/01/11 12:46:11;;;;;;;0.20;0.20;;;3.00;99.90;;;;;;5108855;28;20036;-78
2022/01/11 12:48:44;;;;;;;0.75;0.75;;;3.00;99.90;;;;;;5093323;28;20089;-80
2022/01/11 12:51:35;;;;;;;0.25;0.25;;;3.10;99.90;;;;;;5125896;28;20056;-77
2022/01/11 12:54:29;;;;;;;0.10;0.10;;;3.10;99.90;;;;;;5108850;28;20032;-78
2022/01/11 12:57:01;;;;;;;0.10;0.10;;;3.00;99.90;;;;;;5146517;27;20388;-78
2022/01/11 12:59:34;;;;;;;0.10;0.10;;;3.10;99.90;;;;;;5129504;28;20039;-78
2022/01/11 13:02:13;;;;;;;0.10;0.10;;;3.10;99.90;;;;;;5152810;27;20043;-77
2022/01/11 13:04:49;;;;;;;0.10;0.10;;;3.10;99.90;;;;;;5157305;27;20046;-82
2022/01/11 13:07:27;;;;;;;0.10;0.10;;;3.10;99.90;;;;;;5129615;28;20044;-83